createdAt,value
2022-07-29T00:02:14.736Z,61.42
2022-07-29T00:04:41.252Z,61.85
2022-07-29T00:07:08.053Z,61.45
2022-07-29T00:09:50.540Z,61.65
2022-07-29T00:12:18.092Z,62.08
2022-07-29T00:14:53.813Z,62.15
2022-07-29T00:17:20.262Z,62.24
2022-07-29T00:19:46.657Z,63.05
2022-07-29T00:22:13.112Z,62.81
2022-07-29T00:24:39.503Z,63.02
2022-07-29T00:27:05.940Z,63.59
2022-07-29T00:29:34.005Z,63.34
2022-07-29T00:32:01.384Z,63.85
2022-07-29T00:34:46.168Z,62.97
2022-07-29T00:37:12.615Z,63.62
2022-07-29T00:39:39.058Z,63.24
2022-07-29T00:42:06.157Z,63.78
2022-07-29T00:44:37.544Z,63.63
2022-07-29T00:47:04.086Z,64.22
2022-07-29T00:49:30.675Z,63.83
2022-07-29T00:51:57.889Z,63.66
2022-07-29T00:54:24.517Z,63.93
2022-07-29T00:56:50.972Z,64.22
2022-07-29T00:59:17.372Z,63.82
2022-07-29T01:01:43.808Z,63.83
2022-07-29T01:04:10.401Z,64.15
2022-07-29T01:06:36.975Z,63.85
2022-07-29T01:09:04.179Z,63.97
2022-07-29T01:11:30.721Z,64.39
2022-07-29T01:13:57.639Z,63.44
2022-07-29T01:16:33.102Z,63.91
2022-07-29T01:19:13.908Z,64.85
2022-07-29T01:21:58.467Z,63.98
2022-07-29T01:24:56.779Z,64.63
2022-07-29T01:27:43.489Z,63.97
2022-07-29T01:30:11.796Z,64.84
2022-07-29T01:32:42.190Z,65.14
2022-07-29T01:35:22.691Z,65.47
2022-07-29T01:38:01.436Z,65.12
2022-07-29T01:40:45.988Z,65.58
2022-07-29T01:43:18.608Z,65.24
2022-07-29T01:45:51.578Z,64.96
2022-07-29T01:48:24.001Z,65.66
2022-07-29T01:51:21.359Z,65.99
2022-07-29T01:54:07.714Z,65.72
2022-07-29T01:56:36.072Z,66.03
2022-07-29T01:59:05.477Z,65.58
2022-07-29T02:01:34.192Z,66.06
2022-07-29T02:04:04.563Z,66.25
2022-07-29T02:06:33.258Z,66.99
2022-07-29T02:09:00.828Z,66.49
2022-07-29T02:11:27.769Z,66.26
2022-07-29T02:13:57.279Z,67.57
2022-07-29T02:16:24.942Z,67.42
2022-07-29T02:18:54.818Z,66.27
2022-07-29T02:21:25.057Z,66.57
2022-07-29T02:23:56.472Z,66.91
2022-07-29T02:26:25.238Z,66.74
2022-07-29T02:28:55.379Z,67.25
2022-07-29T02:31:25.185Z,68.02
2022-07-29T02:33:53.773Z,66.60
2022-07-29T02:36:23.645Z,68.17
2022-07-29T02:38:51.198Z,67.97
2022-07-29T02:41:34.253Z,67.11
2022-07-29T02:44:10.244Z,67.28
2022-07-29T02:46:38.940Z,66.85
2022-07-29T02:49:21.766Z,68.11
2022-07-29T02:52:16.832Z,68.03
2022-07-29T02:54:50.978Z,67.44
2022-07-29T02:57:29.712Z,68.00
2022-07-29T02:59:59.910Z,67.95
2022-07-29T03:02:28.250Z,68.77
2022-07-29T03:04:57.437Z,69.54
2022-07-29T03:07:25.449Z,69.61
2022-07-29T03:09:53.629Z,68.57
2022-07-29T03:12:20.473Z,69.45
2022-07-29T03:14:47.418Z,69.32
2022-07-29T03:17:14.736Z,68.65
2022-07-29T03:19:41.662Z,68.72
2022-07-29T03:22:08.325Z,69.70
2022-07-29T03:24:36.949Z,68.42
2022-07-29T03:27:04.953Z,69.42
2022-07-29T03:29:33.247Z,68.76
2022-07-29T03:32:02.724Z,69.06
2022-07-29T03:34:30.046Z,69.30
2022-07-29T03:36:56.524Z,69.68
2022-07-29T03:39:26.470Z,70.43
2022-07-29T03:41:55.905Z,69.43
2022-07-29T03:44:23.605Z,68.99
2022-07-29T03:46:52.882Z,69.82
2022-07-29T03:49:21.076Z,69.75
2022-07-29T03:51:47.642Z,69.30
2022-07-29T03:54:15.023Z,69.35
2022-07-29T03:56:48.943Z,69.58
2022-07-29T03:59:18.616Z,69.94
2022-07-29T04:01:46.166Z,69.51
2022-07-29T04:04:13.210Z,69.55
2022-07-29T04:06:41.611Z,70.54
2022-07-29T04:09:09.783Z,70.27
2022-07-29T04:12:02.245Z,69.08
2022-07-29T04:14:25.186Z,69.56
2022-07-29T04:16:51.620Z,70.14
2022-07-29T04:19:18.055Z,70.14
2022-07-29T04:21:46.078Z,70.83
2022-07-29T04:24:12.825Z,69.51
2022-07-29T04:26:39.549Z,69.91
2022-07-29T04:29:05.999Z,70.41
2022-07-29T04:31:32.490Z,70.65
2022-07-29T04:33:58.948Z,70.52
2022-07-29T04:36:29.191Z,70.75
2022-07-29T04:38:56.167Z,71.23
2022-07-29T04:41:22.594Z,71.55
2022-07-29T04:43:49.834Z,70.90
2022-07-29T04:46:16.500Z,70.15
2022-07-29T04:48:43.120Z,70.42
2022-07-29T04:51:09.630Z,71.01
2022-07-29T04:53:36.045Z,70.75
2022-07-29T04:56:03.146Z,71.25
2022-07-29T04:58:29.551Z,70.75
2022-07-29T05:00:56.083Z,71.59
2022-07-29T05:03:22.539Z,71.03
2022-07-29T05:05:49.071Z,71.18
2022-07-29T05:08:15.537Z,70.55
2022-07-29T05:10:42.069Z,69.71
2022-07-29T05:13:08.919Z,70.74
2022-07-29T05:15:36.358Z,70.35
2022-07-29T05:18:03.527Z,71.15
2022-07-29T05:20:31.137Z,70.40
2022-07-29T05:22:59.341Z,70.30
2022-07-29T05:25:43.736Z,68.97
2022-07-29T05:28:11.687Z,69.85
2022-07-29T05:30:38.331Z,69.41
2022-07-29T05:33:04.949Z,69.22
2022-07-29T05:35:31.400Z,69.73
2022-07-29T05:37:57.954Z,70.14
2022-07-29T05:40:24.450Z,69.50
2022-07-29T05:42:50.894Z,69.11
2022-07-29T05:45:17.370Z,69.04
2022-07-29T05:47:43.870Z,69.11
2022-07-29T05:50:10.332Z,68.56
2022-07-29T05:52:36.803Z,68.39
2022-07-29T05:55:05.227Z,67.75
2022-07-29T05:57:32.247Z,68.11
2022-07-29T05:59:58.834Z,67.32
2022-07-29T06:02:25.370Z,67.35
2022-07-29T06:04:51.884Z,67.31
2022-07-29T06:07:18.607Z,67.03
2022-07-29T06:09:45.295Z,66.92
2022-07-29T06:12:11.734Z,66.00
2022-07-29T06:14:39.132Z,66.06
2022-07-29T06:17:06.511Z,65.49
2022-07-29T06:19:36.072Z,65.37
2022-07-29T06:22:02.716Z,64.21
2022-07-29T06:24:29.324Z,63.79
2022-07-29T06:26:55.906Z,63.77
2022-07-29T06:29:22.394Z,63.08
2022-07-29T06:31:48.825Z,63.20
2022-07-29T06:34:15.594Z,62.88
2022-07-29T06:36:42.180Z,63.17
2022-07-29T06:39:09.138Z,62.27
2022-07-29T06:41:36.333Z,61.57
2022-07-29T06:44:02.851Z,61.71
2022-07-29T06:46:29.779Z,61.70
2022-07-29T06:48:56.326Z,61.17
2022-07-29T06:51:23.881Z,61.44
2022-07-29T06:54:01.422Z,61.66
2022-07-29T06:56:39.380Z,61.25
2022-07-29T06:59:07.923Z,60.51
2022-07-29T07:01:34.386Z,60.86
2022-07-29T07:04:00.932Z,60.39
2022-07-29T07:06:27.434Z,60.57
2022-07-29T07:08:54.575Z,60.47
2022-07-29T07:11:21.045Z,59.75
2022-07-29T07:13:47.515Z,59.53
2022-07-29T07:16:14.033Z,59.31
2022-07-29T07:18:40.516Z,58.07
2022-07-29T07:21:07.118Z,58.66
2022-07-29T07:23:34.567Z,59.07
2022-07-29T07:26:01.258Z,59.28
2022-07-29T07:28:29.071Z,60.27
2022-07-29T07:30:55.977Z,60.15
2022-07-29T07:33:22.408Z,59.70
2022-07-29T07:35:49.289Z,59.14
2022-07-29T07:38:15.736Z,58.41
2022-07-29T07:40:42.199Z,58.43
2022-07-29T07:43:08.670Z,58.55
2022-07-29T07:45:35.250Z,58.30
2022-07-29T07:48:01.782Z,57.79
2022-07-29T07:50:28.395Z,57.61
2022-07-29T07:52:58.637Z,57.71
2022-07-29T07:55:26.176Z,58.04
2022-07-29T07:57:53.076Z,58.18
2022-07-29T08:00:19.599Z,57.46
2022-07-29T08:02:49.428Z,57.72
2022-07-29T08:05:19.507Z,57.11
2022-07-29T08:07:47.371Z,57.29
2022-07-29T08:10:38.897Z,56.88
2022-07-29T08:13:10.079Z,56.85
2022-07-29T08:15:36.831Z,56.15
2022-07-29T08:18:08.353Z,55.84
2022-07-29T08:20:36.614Z,55.55
2022-07-29T08:23:03.905Z,56.04
2022-07-29T08:25:30.432Z,55.66
2022-07-29T08:27:57.416Z,55.30
2022-07-29T08:30:23.845Z,55.42
2022-07-29T08:32:56.596Z,54.96
2022-07-29T08:35:24.448Z,56.00
2022-07-29T08:37:52.053Z,56.49
2022-07-29T08:40:19.055Z,56.62
2022-07-29T08:42:45.484Z,57.41
2022-07-29T08:45:12.919Z,57.48
2022-07-29T08:47:43.227Z,57.15
2022-07-29T08:50:11.077Z,56.49
2022-07-29T08:52:40.459Z,56.19
2022-07-29T08:55:10.584Z,55.60
2022-07-29T08:57:37.465Z,55.63
2022-07-29T09:00:08.104Z,54.67
2022-07-29T09:02:41.314Z,54.62
2022-07-29T09:05:08.427Z,54.59
2022-07-29T09:07:35.344Z,54.88
2022-07-29T09:10:02.729Z,54.96
2022-07-29T09:12:33.692Z,54.62
2022-07-29T09:15:02.737Z,54.65
2022-07-29T09:17:50.050Z,53.77
2022-07-29T09:20:23.163Z,53.43
2022-07-29T09:22:51.776Z,52.67
2022-07-29T09:25:39.014Z,53.24
2022-07-29T09:28:20.119Z,52.51
2022-07-29T09:30:55.104Z,52.51
2022-07-29T09:33:23.341Z,52.61
2022-07-29T09:36:07.304Z,52.57
2022-07-29T09:38:34.900Z,51.61
2022-07-29T09:41:06.364Z,51.78
2022-07-29T09:43:33.856Z,51.43
2022-07-29T09:46:14.042Z,50.81
2022-07-29T09:48:40.704Z,51.08
2022-07-29T09:51:20.578Z,50.44
2022-07-29T09:53:49.140Z,49.66
2022-07-29T09:56:15.576Z,49.43
2022-07-29T09:58:42.050Z,49.13
2022-07-29T10:01:08.747Z,48.77
2022-07-29T10:03:52.841Z,48.87
2022-07-29T10:06:19.518Z,48.85
2022-07-29T10:08:46.572Z,49.03
2022-07-29T10:11:20.163Z,48.62
2022-07-29T10:13:48.707Z,48.89
2022-07-29T10:16:16.454Z,48.92
2022-07-29T10:18:44.696Z,49.73
2022-07-29T10:21:22.669Z,48.71
2022-07-29T10:24:01.305Z,49.29
2022-07-29T10:26:29.218Z,49.19
2022-07-29T10:28:56.507Z,49.73
2022-07-29T10:31:30.496Z,49.68
2022-07-29T10:34:13.055Z,49.32
2022-07-29T10:36:55.212Z,49.53
2022-07-29T10:39:49.775Z,50.43
2022-07-29T10:42:33.326Z,50.61
2022-07-29T10:45:02.697Z,50.22
2022-07-29T10:47:31.734Z,50.94
2022-07-29T10:50:06.104Z,51.50
2022-07-29T10:52:51.043Z,51.46
2022-07-29T10:55:37.539Z,51.30
2022-07-29T10:58:17.965Z,51.54
2022-07-29T11:00:51.096Z,51.75
2022-07-29T11:03:57.246Z,51.87
2022-07-29T11:06:28.089Z,51.75
2022-07-29T11:09:18.302Z,52.03
2022-07-29T11:11:51.497Z,51.64
2022-07-29T11:14:19.844Z,52.17
2022-07-29T11:17:06.426Z,52.40
2022-07-29T11:19:34.009Z,52.13
2022-07-29T11:22:02.481Z,52.35
2022-07-29T11:24:32.333Z,53.03
2022-07-29T11:27:40.522Z,53.84
2022-07-29T11:30:08.511Z,54.15
2022-07-29T11:32:41.338Z,54.30
2022-07-29T11:35:17.800Z,54.79
2022-07-29T11:37:52.290Z,56.40
2022-07-29T11:40:20.158Z,57.07
2022-07-29T11:42:48.691Z,57.63
2022-07-29T11:45:43.825Z,58.69
2022-07-29T11:48:32.137Z,59.33
2022-07-29T11:51:00.274Z,60.41
2022-07-29T11:53:29.035Z,60.69
2022-07-29T11:56:00.709Z,61.11
2022-07-29T11:58:28.399Z,60.83
2022-07-29T12:00:56.326Z,60.96
2022-07-29T12:03:35.436Z,60.68
2022-07-29T12:06:12.230Z,60.57
2022-07-29T12:08:44.283Z,60.50
2022-07-29T12:11:29.567Z,60.45
2022-07-29T12:13:56.483Z,60.47
2022-07-29T12:16:25.945Z,60.10
2022-07-29T12:19:05.860Z,59.70
2022-07-29T12:21:56.287Z,60.01
2022-07-29T12:24:26.491Z,59.76
2022-07-29T12:27:00.784Z,59.61
2022-07-29T12:29:33.933Z,59.02
2022-07-29T12:32:02.323Z,58.37
2022-07-29T12:34:30.215Z,58.05
2022-07-29T12:36:56.858Z,58.39
2022-07-29T12:39:23.556Z,58.58
2022-07-29T12:41:50.016Z,58.82
2022-07-29T12:44:16.509Z,59.39
2022-07-29T12:46:43.020Z,59.37
2022-07-29T12:49:09.972Z,59.70
2022-07-29T12:51:39.188Z,60.44
2022-07-29T12:54:14.592Z,60.75
2022-07-29T12:56:44.352Z,60.16
2022-07-29T12:59:19.667Z,60.49
2022-07-29T13:01:49.010Z,60.29
2022-07-29T13:04:37.508Z,61.09
2022-07-29T13:07:07.387Z,60.97
2022-07-29T13:10:00.695Z,60.78
2022-07-29T13:12:27.143Z,61.21
2022-07-29T13:14:53.591Z,61.09
2022-07-29T13:17:23.914Z,61.52
2022-07-29T13:19:52.575Z,61.43
2022-07-29T13:22:24.630Z,60.64
2022-07-29T13:24:53.867Z,61.35
2022-07-29T13:27:25.477Z,61.46
2022-07-29T13:29:53.398Z,62.02
2022-07-29T13:32:28.772Z,61.67
2022-07-29T13:35:05.433Z,62.82
2022-07-29T13:37:35.010Z,63.83
2022-07-29T13:40:04.033Z,64.18
2022-07-29T13:42:30.921Z,63.86
2022-07-29T13:44:57.356Z,64.09
2022-07-29T13:47:32.294Z,63.81
2022-07-29T13:50:03.965Z,63.90
2022-07-29T13:52:32.624Z,64.41
2022-07-29T13:54:59.401Z,64.42
2022-07-29T13:57:25.938Z,63.62
2022-07-29T13:59:54.473Z,63.85
2022-07-29T14:02:25.935Z,64.74
2022-07-29T14:04:56.421Z,64.08
2022-07-29T14:07:23.707Z,64.08
2022-07-29T14:09:51.024Z,63.86
2022-07-29T14:12:17.454Z,64.21
2022-07-29T14:14:44.018Z,64.02
2022-07-29T14:17:13.756Z,64.12
2022-07-29T14:19:40.373Z,64.27
2022-07-29T14:22:08.726Z,64.09
2022-07-29T14:24:37.069Z,64.59
2022-07-29T14:27:04.845Z,64.32
2022-07-29T14:29:37.577Z,64.50
2022-07-29T14:32:09.179Z,64.88
2022-07-29T14:34:37.023Z,64.21
2022-07-29T14:37:06.121Z,64.57
2022-07-29T14:39:32.997Z,64.23
2022-07-29T14:42:00.331Z,64.96
2022-07-29T14:44:32.047Z,64.92
2022-07-29T14:47:00.526Z,65.29
2022-07-29T14:49:27.833Z,65.02
2022-07-29T14:51:54.562Z,65.18
2022-07-29T14:54:21.035Z,64.90
2022-07-29T14:56:47.766Z,64.73
2022-07-29T14:59:14.629Z,65.27
2022-07-29T15:01:41.100Z,65.34
2022-07-29T15:04:07.584Z,65.97
2022-07-29T15:06:34.948Z,65.49
2022-07-29T15:09:01.423Z,65.48
2022-07-29T15:11:27.842Z,65.24
2022-07-29T15:13:54.334Z,65.00
2022-07-29T15:16:21.809Z,64.85
2022-07-29T15:18:48.340Z,64.71
2022-07-29T15:21:15.992Z,65.20
2022-07-29T15:23:42.447Z,64.92
2022-07-29T15:26:08.936Z,65.22
2022-07-29T15:28:37.166Z,65.16
2022-07-29T15:31:03.620Z,65.15
2022-07-29T15:33:30.046Z,65.13
2022-07-29T15:35:57.153Z,65.01
2022-07-29T15:38:28.663Z,65.10
2022-07-29T15:40:55.706Z,64.86
2022-07-29T15:43:22.332Z,65.18
2022-07-29T15:46:07.519Z,64.97
2022-07-29T15:48:34.419Z,65.75
2022-07-29T15:51:01.129Z,65.55
2022-07-29T15:53:27.794Z,65.37
2022-07-29T15:55:54.322Z,65.32
2022-07-29T15:58:21.009Z,65.21
2022-07-29T16:00:47.825Z,64.62
2022-07-29T16:03:15.112Z,65.44
2022-07-29T16:05:43.398Z,64.87
2022-07-29T16:08:10.205Z,65.31
2022-07-29T16:10:36.765Z,65.08
2022-07-29T16:13:05.020Z,65.35
2022-07-29T16:15:31.598Z,65.11
2022-07-29T16:17:58.158Z,64.85
2022-07-29T16:20:24.697Z,65.07
2022-07-29T16:22:51.467Z,65.08
2022-07-29T16:25:18.666Z,64.66
2022-07-29T16:27:45.269Z,64.66
2022-07-29T16:30:12.143Z,64.92
2022-07-29T16:32:40.015Z,65.01
2022-07-29T16:35:07.456Z,65.69
2022-07-29T16:37:37.113Z,65.16
2022-07-29T16:40:23.903Z,65.25
2022-07-29T16:42:50.410Z,65.30
2022-07-29T16:45:17.419Z,65.55
2022-07-29T16:47:48.028Z,65.60
2022-07-29T16:50:15.033Z,65.52
2022-07-29T16:52:41.646Z,65.91
2022-07-29T16:55:09.349Z,65.44
2022-07-29T16:57:36.012Z,65.86
2022-07-29T17:00:03.531Z,65.69
2022-07-29T17:02:30.228Z,65.49
2022-07-29T17:04:57.452Z,66.13
2022-07-29T17:07:23.958Z,65.62
2022-07-29T17:09:55.109Z,65.70
2022-07-29T17:12:22.465Z,65.76
2022-07-29T17:14:48.916Z,66.05
2022-07-29T17:17:20.982Z,65.76
2022-07-29T17:20:09.743Z,65.05
2022-07-29T17:22:36.853Z,65.29
2022-07-29T17:25:05.448Z,65.25
2022-07-29T17:27:32.879Z,64.91
2022-07-29T17:30:08.965Z,64.00
2022-07-29T17:32:39.874Z,63.93
2022-07-29T17:35:26.130Z,63.88
2022-07-29T17:37:53.019Z,64.28
2022-07-29T17:40:19.551Z,64.43
2022-07-29T17:42:47.304Z,62.98
2022-07-29T17:45:13.969Z,62.14
2022-07-29T17:47:41.818Z,61.00
2022-07-29T17:50:08.629Z,60.41
2022-07-29T17:52:35.726Z,60.90
2022-07-29T17:55:02.612Z,61.09
2022-07-29T17:57:29.238Z,61.96
2022-07-29T17:59:55.796Z,62.86
2022-07-29T18:02:24.351Z,63.33
2022-07-29T18:04:53.407Z,64.34
2022-07-29T18:07:20.046Z,63.88
2022-07-29T18:09:46.639Z,64.17
2022-07-29T18:12:13.236Z,64.65
2022-07-29T18:14:39.803Z,64.39
2022-07-29T18:17:06.492Z,64.52
2022-07-29T18:19:33.022Z,64.79
2022-07-29T18:22:05.086Z,64.75
2022-07-29T18:24:32.790Z,64.37
2022-07-29T18:26:59.602Z,64.52
2022-07-29T18:29:29.194Z,64.74
2022-07-29T18:31:56.831Z,65.15
2022-07-29T18:34:23.314Z,64.86
2022-07-29T18:36:49.869Z,65.09
2022-07-29T18:39:20.842Z,64.88
2022-07-29T18:41:50.114Z,65.72
2022-07-29T18:44:22.025Z,65.44
2022-07-29T18:46:50.358Z,65.27
2022-07-29T18:49:17.067Z,65.77
2022-07-29T18:51:43.637Z,65.64
2022-07-29T18:54:10.899Z,65.48
2022-07-29T18:56:38.152Z,65.66
2022-07-29T18:59:05.392Z,66.02
2022-07-29T19:01:32.828Z,65.47
2022-07-29T19:04:00.982Z,65.90
2022-07-29T19:06:27.656Z,66.08
2022-07-29T19:08:54.286Z,66.04
2022-07-29T19:11:20.867Z,66.38
2022-07-29T19:13:47.419Z,66.41
2022-07-29T19:16:14.492Z,66.45
2022-07-29T19:18:41.853Z,66.43
2022-07-29T19:21:09.131Z,66.42
2022-07-29T19:24:01.671Z,66.44
2022-07-29T19:26:23.091Z,66.38
2022-07-29T19:28:53.000Z,66.66
2022-07-29T19:31:19.637Z,66.40
2022-07-29T19:33:46.304Z,66.49
2022-07-29T19:36:13.055Z,66.26
2022-07-29T19:38:39.574Z,66.41
2022-07-29T19:41:06.361Z,66.40
2022-07-29T19:43:50.695Z,66.95
2022-07-29T19:46:18.997Z,66.99
2022-07-29T19:48:45.731Z,66.90
2022-07-29T19:51:12.437Z,67.07
2022-07-29T19:53:39.297Z,67.27
2022-07-29T19:56:06.124Z,67.32
2022-07-29T19:58:35.799Z,67.45
2022-07-29T20:01:10.233Z,67.43
2022-07-29T20:03:39.871Z,67.57
2022-07-29T20:06:07.759Z,67.47
2022-07-29T20:08:34.771Z,67.70
2022-07-29T20:11:02.146Z,68.13
2022-07-29T20:13:31.262Z,68.11
2022-07-29T20:15:58.229Z,67.75
2022-07-29T20:18:26.411Z,67.99
2022-07-29T20:20:53.992Z,68.25
2022-07-29T20:23:22.329Z,67.73
2022-07-29T20:25:49.521Z,68.10
2022-07-29T20:28:16.160Z,68.26
2022-07-29T20:30:45.627Z,68.28
2022-07-29T20:33:14.227Z,68.32
2022-07-29T20:35:41.040Z,68.79
2022-07-29T20:38:07.782Z,68.74
2022-07-29T20:40:35.776Z,68.97
2022-07-29T20:43:02.380Z,68.40
2022-07-29T20:45:29.121Z,68.81
2022-07-29T20:47:55.843Z,68.79
2022-07-29T20:50:24.246Z,68.70
2022-07-29T20:52:52.602Z,68.73
2022-07-29T20:55:19.642Z,69.21
2022-07-29T20:57:46.877Z,69.35
2022-07-29T21:00:14.347Z,68.73
2022-07-29T21:02:41.051Z,68.89
2022-07-29T21:05:08.095Z,69.15
2022-07-29T21:07:38.964Z,69.40
2022-07-29T21:10:06.058Z,69.41
2022-07-29T21:12:35.565Z,69.55
2022-07-29T21:15:07.780Z,70.01
2022-07-29T21:17:40.974Z,69.81
2022-07-29T21:20:11.660Z,69.69
2022-07-29T21:22:38.451Z,70.24
2022-07-29T21:25:06.222Z,70.55
2022-07-29T21:27:51.398Z,70.92
2022-07-29T21:30:18.393Z,70.49
2022-07-29T21:32:45.039Z,70.45
2022-07-29T21:35:22.345Z,70.66
2022-07-29T21:37:58.562Z,71.12
2022-07-29T21:40:28.516Z,71.23
2022-07-29T21:42:55.372Z,71.15
2022-07-29T21:45:22.237Z,71.33
2022-07-29T21:47:48.881Z,71.21
2022-07-29T21:50:15.701Z,71.30
2022-07-29T21:52:42.295Z,71.93
2022-07-29T21:55:11.503Z,71.98
2022-07-29T21:57:38.453Z,71.95
2022-07-29T22:00:08.007Z,72.42
2022-07-29T22:02:34.932Z,71.98
2022-07-29T22:05:04.450Z,71.79
2022-07-29T22:07:55.637Z,72.10
2022-07-29T22:10:18.325Z,72.33
2022-07-29T22:12:45.041Z,72.33
2022-07-29T22:15:12.021Z,72.35
2022-07-29T22:17:41.047Z,72.69
2022-07-29T22:20:08.285Z,72.76
2022-07-29T22:22:35.562Z,72.54
2022-07-29T22:25:03.007Z,72.58
2022-07-29T22:27:29.667Z,72.87
2022-07-29T22:29:58.549Z,72.82
2022-07-29T22:32:27.137Z,72.89
2022-07-29T22:34:53.709Z,72.65
2022-07-29T22:37:20.725Z,72.76
2022-07-29T22:39:47.275Z,72.83
2022-07-29T22:42:13.990Z,72.96
2022-07-29T22:44:40.595Z,72.73
2022-07-29T22:47:07.281Z,72.83
2022-07-29T22:49:34.118Z,72.61
2022-07-29T22:52:00.749Z,72.62
2022-07-29T22:54:27.686Z,72.86
2022-07-29T22:56:54.834Z,72.91
2022-07-29T22:59:21.423Z,72.88
2022-07-29T23:01:48.056Z,73.02
2022-07-29T23:04:15.380Z,72.87
2022-07-29T23:06:43.578Z,72.94
2022-07-29T23:09:10.147Z,73.09
2022-07-29T23:11:36.818Z,73.03
2022-07-29T23:14:03.793Z,72.89
2022-07-29T23:16:30.796Z,72.83
2022-07-29T23:19:00.775Z,72.72
2022-07-29T23:21:31.190Z,72.82
2022-07-29T23:23:57.923Z,73.63
2022-07-29T23:26:24.484Z,73.31
2022-07-29T23:28:51.190Z,73.33
2022-07-29T23:31:18.934Z,73.79
2022-07-29T23:33:45.566Z,74.19
2022-07-29T23:36:12.164Z,74.48
2022-07-29T23:38:40.996Z,74.06
2022-07-29T23:41:09.861Z,74.41
2022-07-29T23:43:37.331Z,74.35
2022-07-29T23:46:04.396Z,74.22
2022-07-29T23:48:33.138Z,74.20
2022-07-29T23:51:01.141Z,74.19
2022-07-29T23:53:28.722Z,74.15
2022-07-29T23:55:57.556Z,73.99
2022-07-29T23:58:24.384Z,74.13
